Time;durP1;ratioP1;P1;durP2;ratioP2;P2;SDS_P1;SDS_P2;PMS_P1;PMS_P2;Temp;Humidity;BMP_temperature;BMP_pressure;BME280_temperature;BME280_humidity;BME280_pressure;Samples;Min_cycle;Max_cycle;Signal;HPM_P1;HPM_P2
2022/08/07 00:01:36;;;;;;;2.42;1.87;;;;;;;20.43;71.86;100505.53;5548899;32;33862;-68
2022/08/07 00:04:59;;;;;;;3.80;2.03;;;;;;;20.41;72.18;100502.25;5548800;32;34821;-69
2022/08/07 00:08:06;;;;;;;2.60;2.00;;;;;;;20.47;71.61;100502.16;5548845;32;34720;-68
2022/08/07 00:11:14;;;;;;;2.10;1.93;;;;;;;20.50;71.53;100515.16;5548843;32;35276;-68
2022/08/07 00:14:33;;;;;;;2.75;2.10;;;;;;;20.49;71.72;100516.22;5550135;32;33873;-68
2022/08/07 00:17:37;;;;;;;3.33;2.00;;;;;;;20.58;71.31;100505.91;5551618;32;34034;-67
2022/08/07 00:20:40;;;;;;;2.42;1.90;;;;;;;20.67;70.80;100505.34;5550997;32;32341;-65
2022/08/07 00:23:44;;;;;;;3.00;2.00;;;;;;;20.72;70.65;100510.88;5551439;32;34059;-67
2022/08/07 00:26:50;;;;;;;2.65;1.80;;;;;;;20.63;71.08;100506.06;5550666;32;33566;-67
2022/08/07 00:30:09;;;;;;;3.42;1.77;;;;;;;20.75;70.58;100502.34;5550619;32;32550;-67
2022/08/07 00:33:28;;;;;;;;;;;;;;;20.68;70.75;100501.63;5551727;32;33912;-67
2022/08/07 00:36:34;;;;;;;3.17;1.95;;;;;;;20.74;70.57;100502.56;5551424;32;34488;-67
2022/08/07 00:39:40;;;;;;;2.65;2.20;;;;;;;20.76;70.62;100501.31;5551370;32;33893;-67
2022/08/07 00:42:56;;;;;;;2.53;2.00;;;;;;;20.77;70.45;100507.50;5551329;32;34168;-66
2022/08/07 00:46:01;;;;;;;2.40;1.92;;;;;;;20.73;70.49;100504.44;5551119;32;34033;-66
2022/08/07 00:49:04;;;;;;;2.75;1.80;;;;;;;20.75;70.52;100496.12;5551535;32;35360;-67
2022/08/07 00:52:09;;;;;;;3.30;1.87;;;;;;;20.86;70.22;100498.03;5551374;32;34560;-67
2022/08/07 00:55:13;;;;;;;2.37;2.00;;;;;;;20.84;70.61;100508.22;5551248;32;33950;-67
2022/08/07 00:58:27;;;;;;;2.08;1.87;;;;;;;20.91;70.46;100500.88;5551265;32;33924;-66
2022/08/07 01:01:30;;;;;;;2.45;1.98;;;;;;;20.85;70.05;100495.56;5550469;32;33946;-67
2022/08/07 01:04:46;;;;;;;2.25;2.00;;;;;;;20.95;69.65;100495.81;5550434;32;33621;-66
2022/08/07 01:07:50;;;;;;;2.15;1.90;;;;;;;20.77;70.46;100502.09;5551173;32;34773;-68
2022/08/07 01:10:53;;;;;;;2.25;1.95;;;;;;;20.91;69.88;100495.47;5551075;32;34556;-67
2022/08/07 01:14:00;;;;;;;2.45;1.85;;;;;;;20.86;70.03;100498.03;5550430;32;34287;-68
2022/08/07 01:17:04;;;;;;;2.08;1.87;;;;;;;20.89;69.90;100496.75;5551177;32;33982;-67
2022/08/07 01:20:12;;;;;;;3.17;2.08;;;;;;;20.93;69.84;100498.75;5550407;32;34066;-67
2022/08/07 01:23:19;;;;;;;3.28;2.20;;;;;;;20.93;69.79;100498.75;5550946;32;34098;-67
2022/08/07 01:26:36;;;;;;;4.15;2.00;;;;;;;21.00;69.71;100493.25;5550021;32;34001;-67
2022/08/07 01:29:39;;;;;;;2.33;2.12;;;;;;;20.90;69.65;100493.00;5551184;32;34614;-68
2022/08/07 01:32:42;;;;;;;5.72;2.10;;;;;;;20.93;69.69;100495.22;5550281;32;33206;-67
2022/08/07 01:35:46;;;;;;;2.80;2.20;;;;;;;20.88;69.82;100485.13;5550927;32;33986;-66
2022/08/07 01:38:57;;;;;;;2.55;2.17;;;;;;;20.92;69.96;100488.16;5551068;32;34096;-67
2022/08/07 01:42:03;;;;;;;3.30;2.30;;;;;;;20.94;69.77;100486.06;5550169;32;33125;-67
2022/08/07 01:45:27;;;;;;;2.45;2.20;;;;;;;20.96;69.63;100489.38;5550845;32;33905;-68
2022/08/07 01:48:46;;;;;;;2.20;2.00;;;;;;;20.96;69.43;100486.69;5549761;32;32792;-66
2022/08/07 01:51:51;;;;;;;2.37;2.17;;;;;;;20.95;69.32;100487.72;5550770;32;35245;-67
2022/08/07 01:55:08;;;;;;;2.75;2.10;;;;;;;20.97;69.31;100494.50;5551086;32;34652;-67
2022/08/07 01:58:29;;;;;;;2.83;1.95;;;;;;;20.91;69.56;100486.56;5550699;32;34589;-67
2022/08/07 02:01:42;;;;;;;2.62;2.03;;;;;;;20.97;69.78;100496.38;5549819;32;32997;-67
2022/08/07 02:05:09;;;;;;;2.00;1.83;;;;;;;20.96;69.33;100492.88;5550082;32;33571;-67
2022/08/07 02:08:39;;;;;;;2.62;2.10;;;;;;;21.01;69.20;100503.00;5550747;32;35279;-67
2022/08/07 02:11:47;;;;;;;2.47;2.22;;;;;;;21.01;69.06;100501.09;5550470;32;34083;-67
2022/08/07 02:15:10;;;;;;;3.37;2.20;;;;;;;21.00;69.13;100495.94;5550700;32;34628;-67
2022/08/07 02:18:14;;;;;;;3.20;2.33;;;;;;;21.01;68.99;100500.28;5550545;32;34676;-68
2022/08/07 02:21:20;;;;;;;3.10;2.20;;;;;;;20.94;69.30;100503.09;5550444;32;34638;-68
2022/08/07 02:24:24;;;;;;;4.80;2.03;;;;;;;20.95;69.31;100503.91;5550360;32;34671;-68
2022/08/07 02:27:32;;;;;;;2.35;2.00;;;;;;;21.02;69.08;100507.31;5550231;32;33852;-68
2022/08/07 02:30:38;;;;;;;2.37;2.05;;;;;;;21.01;69.08;100511.06;5550394;32;34321;-67
2022/08/07 02:33:42;;;;;;;6.62;2.25;;;;;;;21.00;69.01;100506.72;5550387;32;33875;-66
2022/08/07 02:37:07;;;;;;;2.28;2.08;;;;;;;21.05;68.87;100517.66;5550356;32;33908;-66
2022/08/07 02:40:11;;;;;;;3.10;2.47;;;;;;;20.95;69.23;100518.22;5550334;32;34084;-67
2022/08/07 02:43:39;;;;;;;2.25;2.05;;;;;;;20.96;69.13;100524.44;5550120;32;34893;-67
2022/08/07 02:46:47;;;;;;;5.57;2.45;;;;;;;20.97;69.16;100526.88;5550239;32;34638;-66
2022/08/07 02:49:55;;;;;;;3.20;2.33;;;;;;;20.96;69.66;100524.44;5549912;32;33906;-67
2022/08/07 02:53:07;;;;;;;6.90;2.42;;;;;;;21.05;68.73;100531.13;5550116;32;34672;-67
2022/08/07 02:56:18;;;;;;;2.78;2.03;;;;;;;20.90;69.38;100528.87;5550153;32;33925;-67
2022/08/07 02:59:25;;;;;;;2.58;2.35;;;;;;;20.80;69.86;100528.63;5537067;32;34725;-68
2022/08/07 03:02:31;;;;;;;2.85;2.25;;;;;;;20.80;69.91;100525.91;5550462;32;33820;-68
2022/08/07 03:05:36;;;;;;;6.32;2.60;;;;;;;20.66;70.85;100524.47;5550168;32;34656;-68
2022/08/07 03:08:40;;;;;;;6.28;2.70;;;;;;;20.69;70.73;100522.13;5550306;32;34594;-68
2022/08/07 03:11:44;;;;;;;2.78;2.37;;;;;;;20.63;71.28;100524.91;5550090;32;33949;-68
2022/08/07 03:14:55;;;;;;;2.90;2.60;;;;;;;20.68;70.83;100517.78;5550113;32;35445;-68
2022/08/07 03:17:58;;;;;;;4.97;2.35;;;;;;;20.73;70.60;100527.88;5549836;32;34609;-67
2022/08/07 03:21:04;;;;;;;4.07;2.70;;;;;;;20.66;70.79;100519.91;5550027;32;33969;-66
2022/08/07 03:24:12;;;;;;;4.05;2.50;;;;;;;20.64;70.90;100527.41;5549999;32;34047;-67
2022/08/07 03:27:23;;;;;;;2.90;2.45;;;;;;;20.57;71.22;100537.47;5548445;32;33728;-68
2022/08/07 03:30:45;;;;;;;3.25;2.45;;;;;;;20.57;71.15;100533.94;5549612;32;33980;-68
2022/08/07 03:34:00;;;;;;;3.90;2.80;;;;;;;20.46;71.49;100532.84;5549823;32;34313;-67
2022/08/07 03:37:03;;;;;;;4.00;2.50;;;;;;;20.51;71.95;100540.25;5549735;32;33988;-67
2022/08/07 03:40:17;;;;;;;3.40;2.60;;;;;;;20.43;71.90;100532.50;5549724;32;33835;-69
2022/08/07 03:43:25;;;;;;;4.45;2.70;;;;;;;20.31;72.39;100535.13;5548798;32;32507;-69
2022/08/07 03:46:36;;;;;;;4.37;2.90;;;;;;;20.46;72.66;100537.41;5549380;32;34186;-68
2022/08/07 03:49:59;;;;;;;3.00;2.70;;;;;;;20.40;71.94;100544.53;5550179;32;33926;-68
2022/08/07 03:53:05;;;;;;;3.53;2.78;;;;;;;20.30;72.41;100549.59;5551791;32;34613;-68
2022/08/07 03:56:10;;;;;;;3.03;2.50;;;;;;;20.31;72.53;100549.41;5551792;32;34592;-67
2022/08/07 03:59:17;;;;;;;2.58;2.03;;;;;;;20.31;72.42;100545.91;5551497;32;34026;-68
2022/08/07 04:02:22;;;;;;;2.90;2.50;;;;;;;20.32;72.57;100558.34;5552091;32;34348;-68
2022/08/07 04:05:26;;;;;;;3.42;2.42;;;;;;;20.35;72.59;100560.56;5551663;32;33949;-69
2022/08/07 04:08:44;;;;;;;3.25;2.25;;;;;;;20.50;72.30;100557.47;5550576;32;34024;-68
2022/08/07 04:11:50;;;;;;;2.67;2.30;;;;;;;20.70;71.60;100561.53;5551701;32;34357;-68
2022/08/07 04:15:14;;;;;;;4.72;2.30;;;;;;;20.85;70.93;100571.06;5551576;32;33955;-69
2022/08/07 04:18:18;;;;;;;3.37;2.47;;;;;;;20.87;71.00;100574.34;5551449;32;34207;-69
2022/08/07 04:21:42;;;;;;;6.43;2.47;;;;;;;20.90;70.72;100577.44;5551599;32;34608;-68
2022/08/07 04:25:04;;;;;;;2.90;2.08;;;;;;;20.90;71.98;100576.59;5551483;32;33969;-68
2022/08/07 04:28:14;;;;;;;2.97;2.40;;;;;;;21.06;72.68;100578.59;5551083;32;35298;-69
2022/08/07 04:31:24;;;;;;;2.35;2.10;;;;;;;20.91;72.82;100583.63;5551841;32;34256;-68
2022/08/07 04:34:49;;;;;;;2.40;2.03;;;;;;;20.79;73.30;100583.59;5551745;32;34323;-68
2022/08/07 04:37:53;;;;;;;2.92;2.03;;;;;;;20.86;71.85;100591.59;5551821;32;33921;-69
2022/08/07 04:41:09;;;;;;;2.03;1.60;;;;;;;21.04;70.55;100589.66;5551449;32;34012;-69
2022/08/07 04:44:21;;;;;;;1.77;1.33;;;;;;;21.18;70.06;100588.41;5551240;32;35273;-67
2022/08/07 04:47:56;;;;;;;1.40;1.20;;;;;;;21.32;68.68;100599.81;5550586;32;32447;-68
2022/08/07 04:51:37;;;;;;;1.98;1.23;;;;;;;21.48;67.67;100596.44;5551502;32;34115;-68
2022/08/07 04:55:02;;;;;;;1.17;0.95;;;;;;;21.65;66.85;100593.84;5551280;32;34543;-67
2022/08/07 04:59:03;;;;;;;1.33;1.10;;;;;;;21.61;66.46;100601.59;5551277;32;34700;-66
2022/08/07 05:02:47;;;;;;;1.17;1.00;;;;;;;21.57;66.43;100602.31;5551249;32;34029;-67
2022/08/07 05:06:15;;;;;;;1.23;1.12;;;;;;;21.65;66.30;100601.94;5551188;32;33915;-67
2022/08/07 05:09:31;;;;;;;0.98;0.80;;;;;;;21.82;65.06;100599.37;5550991;32;34004;-68
2022/08/07 05:13:12;;;;;;;1.05;0.93;;;;;;;21.76;65.30;100597.59;5550798;32;33867;-69
2022/08/07 05:16:37;;;;;;;1.20;1.00;;;;;;;21.76;65.16;100613.81;5551132;32;33876;-69
2022/08/07 05:19:50;;;;;;;1.50;0.98;;;;;;;21.81;64.92;100619.31;5551063;32;34580;-68
2022/08/07 05:22:57;;;;;;;1.00;0.90;;;;;;;21.82;64.48;100627.22;5549988;32;34533;-68
2022/08/07 05:26:02;;;;;;;1.00;0.80;;;;;;;21.80;63.94;100629.31;5551185;32;34230;-68
2022/08/07 05:29:21;;;;;;;;;;;;;;;21.78;64.16;100625.22;5551117;32;33965;-69
2022/08/07 05:32:25;;;;;;;1.08;0.80;;;;;;;22.13;63.06;100625.19;5550669;32;34888;-67
2022/08/07 05:35:28;;;;;;;1.75;0.70;;;;;;;21.87;63.27;100626.50;5549831;32;33940;-69
2022/08/07 05:38:44;;;;;;;1.05;0.80;;;;;;;21.81;63.53;100628.25;5550911;32;34123;-67
2022/08/07 05:42:08;;;;;;;1.20;0.70;;;;;;;22.03;63.13;100628.50;5550304;32;34112;-68
2022/08/07 05:45:15;;;;;;;0.82;0.80;;;;;;;22.19;62.35;100630.47;5550027;32;33997;-67
2022/08/07 05:48:39;;;;;;;1.33;0.85;;;;;;;22.28;61.77;100630.94;5550655;32;33897;-67
2022/08/07 05:52:03;;;;;;;1.90;1.00;;;;;;;22.09;61.25;100632.97;5550972;32;34121;-67
2022/08/07 05:55:07;;;;;;;1.30;0.90;;;;;;;22.20;61.27;100639.41;5550955;32;33932;-68
2022/08/07 05:58:15;;;;;;;1.27;1.08;;;;;;;22.17;61.04;100639.91;5550898;32;34191;-67
2022/08/07 06:01:20;;;;;;;1.37;0.80;;;;;;;22.21;60.76;100647.28;5550614;32;34018;-67
2022/08/07 06:04:25;;;;;;;1.17;0.73;;;;;;;22.36;60.53;100638.69;5550486;32;34101;-67
2022/08/07 06:07:33;;;;;;;1.25;0.88;;;;;;;22.54;59.44;100643.91;5550811;32;35204;-68
2022/08/07 06:10:57;;;;;;;0.95;0.80;;;;;;;22.77;58.29;100638.44;5550227;32;33964;-68
2022/08/07 06:14:00;;;;;;;2.08;0.80;;;;;;;22.98;57.35;100636.13;5550228;32;34764;-68
2022/08/07 06:17:23;;;;;;;0.80;0.70;;;;;;;23.05;57.01;100632.19;5550666;32;33899;-68
2022/08/07 06:20:36;;;;;;;2.25;0.90;;;;;;;22.82;57.08;100638.56;5550473;32;34034;-67
2022/08/07 06:23:59;;;;;;;1.65;0.80;;;;;;;23.07;57.22;100634.66;5550337;32;34273;-67
2022/08/07 06:27:23;;;;;;;1.63;1.00;;;;;;;23.12;56.43;100646.41;5549673;32;34657;-66
2022/08/07 06:30:46;;;;;;;0.70;0.70;;;;;;;23.24;55.96;100647.16;5550304;32;34252;-67
2022/08/07 06:33:55;;;;;;;2.00;0.90;;;;;;;23.06;56.39;100650.09;5549560;32;34596;-67
2022/08/07 06:37:00;;;;;;;1.08;0.80;;;;;;;23.05;55.95;100656.56;5550256;32;34426;-68
2022/08/07 06:40:05;;;;;;;1.20;0.90;;;;;;;23.15;55.66;100662.16;5550596;32;33912;-68
2022/08/07 06:43:25;;;;;;;2.70;0.90;;;;;;;22.92;56.25;100656.88;5550631;32;34315;-67
2022/08/07 06:46:28;;;;;;;1.00;0.80;;;;;;;23.13;55.94;100666.19;5549335;32;33958;-68
2022/08/07 06:49:37;;;;;;;1.50;0.80;;;;;;;23.09;55.23;100670.44;5550107;32;33922;-66
2022/08/07 06:52:56;;;;;;;1.45;0.93;;;;;;;22.80;54.97;100670.41;5550212;32;34644;-66
2022/08/07 06:56:02;;;;;;;1.55;1.00;;;;;;;22.68;54.94;100676.91;5550462;32;34375;-68
2022/08/07 06:59:14;;;;;;;1.50;0.85;;;;;;;22.84;54.57;100681.59;5550167;32;34647;-67
2022/08/07 07:02:38;;;;;;;1.48;1.00;;;;;;;22.93;53.87;100680.16;5549278;32;33867;-68
2022/08/07 07:05:58;;;;;;;1.25;0.80;;;;;;;22.78;54.15;100677.97;5550181;32;34074;-68
2022/08/07 07:09:43;;;;;;;1.27;0.80;;;;;;;22.79;53.98;100676.09;5549534;32;34165;-68
2022/08/07 07:12:50;;;;;;;3.33;0.80;;;;;;;23.19;53.40;100681.47;5536469;32;34183;-68
2022/08/07 07:15:59;;;;;;;2.10;0.85;;;;;;;22.93;52.53;100683.69;5549773;32;34134;-68
2022/08/07 07:19:07;;;;;;;1.17;0.80;;;;;;;22.69;53.06;100671.28;5549716;32;34657;-67
2022/08/07 07:22:31;;;;;;;2.58;0.93;;;;;;;22.65;53.57;100678.22;5549582;32;33913;-67
2022/08/07 07:25:58;;;;;;;1.35;0.82;;;;;;;22.80;52.48;100685.88;5551556;32;33885;-65
2022/08/07 07:29:24;;;;;;;2.45;1.08;;;;;;;22.57;53.24;100675.06;5551044;32;34188;-66
2022/08/07 07:32:48;;;;;;;1.23;0.80;;;;;;;22.70;52.86;100674.81;5551132;32;33959;-68
2022/08/07 07:35:54;;;;;;;1.17;0.88;;;;;;;23.04;52.33;100676.59;5551650;32;34264;-67
2022/08/07 07:39:16;;;;;;;1.80;0.98;;;;;;;22.91;52.01;100669.56;5551124;32;33407;-68
2022/08/07 07:42:20;;;;;;;0.70;0.70;;;;;;;23.03;51.98;100672.22;5552174;32;34498;-65
2022/08/07 07:45:36;;;;;;;0.98;0.73;;;;;;;23.02;51.80;100672.47;5550966;32;32390;-66
2022/08/07 07:49:01;;;;;;;4.68;0.80;;;;;;;22.97;51.40;100659.66;5551348;32;34565;-69
2022/08/07 07:52:25;;;;;;;6.50;1.17;;;;;;;23.33;50.38;100664.63;5550828;32;33887;-68
2022/08/07 07:55:29;;;;;;;1.77;0.77;;;;;;;23.34;50.21;100669.00;5551858;32;33946;-68
2022/08/07 07:58:48;;;;;;;1.42;0.90;;;;;;;23.21;50.32;100668.47;5550982;32;32354;-67
2022/08/07 08:01:58;;;;;;;0.98;0.70;;;;;;;23.28;50.34;100667.28;5551678;32;34601;-67
2022/08/07 08:05:07;;;;;;;0.95;0.80;;;;;;;23.44;50.51;100675.66;5551235;32;34896;-67
2022/08/07 08:08:16;;;;;;;1.37;0.80;;;;;;;23.58;50.15;100669.69;5550515;32;34241;-68
2022/08/07 08:11:38;;;;;;;5.43;1.00;;;;;;;23.38;50.24;100670.13;5550780;32;33248;-67
2022/08/07 08:15:01;;;;;;;4.00;1.05;;;;;;;23.53;50.15;100671.53;5551248;32;33994;-68
2022/08/07 08:18:10;;;;;;;1.30;0.70;;;;;;;23.79;49.86;100668.97;5551438;32;33912;-67
2022/08/07 08:28:47;;;;;;;4.20;1.00;;;;;;;24.33;46.94;100677.34;5550754;32;34069;-65
2022/08/07 08:31:53;;;;;;;1.08;0.77;;;;;;;24.45;46.22;100672.62;5551389;32;34083;-67
2022/08/07 08:35:26;;;;;;;1.17;0.88;;;;;;;24.31;46.20;100678.66;5550146;32;34026;-68
2022/08/07 08:38:34;;;;;;;2.08;0.70;;;;;;;24.54;46.10;100670.31;5550148;32;34732;-68
2022/08/07 08:41:49;;;;;;;4.30;1.00;;;;;;;24.73;45.38;100678.94;5550170;32;34037;-65
2022/08/07 08:45:28;;;;;;;1.25;0.80;;;;;;;25.10;44.24;100688.06;5551033;32;34190;-68
2022/08/07 08:48:58;;;;;;;1.67;0.90;;;;;;;25.44;43.72;100677.81;5551128;32;34086;-66
2022/08/07 08:52:18;;;;;;;1.12;0.80;;;;;;;25.66;42.83;100675.03;5550947;32;33939;-68
2022/08/07 08:55:39;;;;;;;0.85;0.62;;;;;;;26.38;42.25;100681.50;5549813;32;33399;-68
2022/08/07 08:59:34;;;;;;;2.60;0.70;;;;;;;26.65;40.42;100666.94;5550854;32;33959;-66
2022/08/07 09:03:03;;;;;;;2.85;1.80;;;;;;;28.75;37.08;100677.28;5550408;32;34425;-68
2022/08/07 09:06:34;;;;;;;0.85;0.57;;;;;;;28.86;36.86;100683.47;5550021;32;32383;-68
2022/08/07 09:09:43;;;;;;;0.90;0.68;;;;;;;27.73;38.41;100680.50;5550498;32;33989;-67
2022/08/07 09:12:58;;;;;;;1.98;0.95;;;;;;;26.77;40.14;100668.31;5550272;32;33917;-68
2022/08/07 09:16:19;;;;;;;1.00;0.70;;;;;;;27.53;39.71;100676.69;5550229;32;34224;-68
2022/08/07 09:20:04;;;;;;;1.85;1.10;;;;;;;27.40;38.56;100671.72;5550540;32;34311;-68
2022/08/07 09:23:30;;;;;;;1.67;0.70;;;;;;;29.23;35.41;100674.78;5550826;32;35230;-68
2022/08/07 09:26:58;;;;;;;1.70;0.70;;;;;;;30.62;33.09;100672.94;5551078;32;33962;-67
2022/08/07 09:30:08;;;;;;;2.62;0.90;;;;;;;30.37;33.29;100658.72;5550498;32;33928;-69
2022/08/07 09:33:27;;;;;;;3.70;0.80;;;;;;;31.69;31.27;100674.94;5549787;32;34677;-68
2022/08/07 09:37:10;;;;;;;3.15;0.70;;;;;;;30.41;32.58;100660.56;5550487;32;34465;-68
2022/08/07 09:40:34;;;;;;;1.55;0.75;;;;;;;30.59;32.50;100659.84;5550618;32;34063;-68
2022/08/07 09:44:05;;;;;;;0.90;0.75;;;;;;;32.85;30.08;100658.13;5550534;32;34761;-68
2022/08/07 09:47:38;;;;;;;1.75;0.90;;;;;;;32.52;29.60;100660.19;5549710;32;34349;-67
2022/08/07 09:51:03;;;;;;;1.62;0.80;;;;;;;31.05;31.61;100656.47;5549604;32;34096;-68
2022/08/07 09:54:46;;;;;;;1.48;0.80;;;;;;;31.42;31.10;100648.19;5550788;32;34065;-68
2022/08/07 09:57:52;;;;;;;2.28;0.90;;;;;;;30.80;32.54;100654.06;5549636;32;32452;-66
2022/08/07 10:01:19;;;;;;;3.55;1.00;;;;;;;30.80;32.41;100640.37;5550711;32;34104;-67
2022/08/07 10:05:00;;;;;;;1.30;0.82;;;;;;;30.81;32.58;100637.34;5550425;32;35224;-68
2022/08/07 10:08:34;;;;;;;1.65;0.80;;;;;;;33.62;28.59;100633.97;5550332;32;33929;-67
2022/08/07 10:11:58;;;;;;;1.50;1.00;;;;;;;33.10;29.02;100629.22;5549235;32;34150;-69
2022/08/07 10:15:39;;;;;;;1.83;0.98;;;;;;;34.23;27.49;100624.09;5549653;32;35340;-69
2022/08/07 10:19:22;;;;;;;2.17;1.10;;;;;;;34.33;27.55;100614.72;5549546;32;34065;-68
2022/08/07 10:22:33;;;;;;;3.15;0.93;;;;;;;34.09;27.74;100615.09;5550417;32;34058;-69
2022/08/07 10:26:15;;;;;;;2.00;0.90;;;;;;;32.95;29.28;100613.91;5550317;32;34086;-68
2022/08/07 10:29:38;;;;;;;1.47;1.10;;;;;;;32.30;29.88;100616.16;5544948;32;141983;-69
2022/08/07 10:33:29;;;;;;;3.92;1.23;;;;;;;31.22;32.44;100607.44;5550517;32;34697;-69
2022/08/07 10:37:23;;;;;;;3.03;0.93;;;;;;;29.53;35.83;100605.44;5550471;32;34361;-68
2022/08/07 10:41:08;;;;;;;1.73;0.90;;;;;;;29.75;34.90;100598.38;5550544;32;33901;-68
2022/08/07 10:44:32;;;;;;;2.60;1.30;;;;;;;30.17;34.71;100591.34;5550252;32;34004;-69
2022/08/07 10:47:55;;;;;;;3.28;1.10;;;;;;;29.75;35.45;100595.63;5550101;32;34754;-69
2022/08/07 10:51:16;;;;;;;1.85;1.20;;;;;;;29.85;35.45;100589.22;5536974;32;33537;-68
2022/08/07 10:54:56;;;;;;;1.52;1.20;;;;;;;29.58;35.60;100592.50;5550254;32;34112;-68
2022/08/07 10:58:34;;;;;;;2.03;1.60;;;;;;;30.06;36.34;100582.47;5549082;32;32531;-70
2022/08/07 11:02:20;;;;;;;1.95;1.73;;;;;;;30.23;36.54;100582.78;5549899;32;34322;-69
2022/08/07 11:05:41;;;;;;;2.08;1.50;;;;;;;30.56;35.55;100581.00;5550065;32;34559;-67
2022/08/07 11:08:56;;;;;;;4.30;1.90;;;;;;;31.06;34.44;100573.97;5549586;32;34675;-68
2022/08/07 11:12:18;;;;;;;2.97;1.67;;;;;;;31.33;34.02;100581.47;5549739;32;34479;-68
2022/08/07 11:15:38;;;;;;;2.12;1.30;;;;;;;31.46;33.89;100572.47;5550051;32;34421;-67
2022/08/07 11:18:50;;;;;;;1.85;1.60;;;;;;;32.43;31.90;100568.66;5549816;32;34574;-67
2022/08/07 11:22:06;;;;;;;2.45;1.50;;;;;;;33.92;29.93;100563.56;5548749;32;34198;-67
2022/08/07 11:25:35;;;;;;;3.70;1.40;;;;;;;33.81;29.78;100562.22;5548809;32;32441;-67
2022/08/07 11:29:07;;;;;;;1.50;1.40;;;;;;;32.89;30.95;100562.13;5549153;32;34622;-67
2022/08/07 11:32:33;;;;;;;;;;;;;;;32.43;31.87;100563.16;5549513;32;34605;-67
2022/08/07 11:35:51;;;;;;;3.47;1.45;;;;;;;33.93;30.05;100548.69;5549175;32;34803;-68
2022/08/07 11:39:21;;;;;;;3.78;1.52;;;;;;;34.31;29.13;100556.41;5549258;32;33970;-68
2022/08/07 11:42:29;;;;;;;2.12;1.60;;;;;;;34.28;29.15;100552.34;5548234;32;34226;-67
2022/08/07 11:45:52;;;;;;;5.65;1.60;;;;;;;33.63;29.90;100546.75;5549088;32;34123;-68
2022/08/07 11:49:13;;;;;;;2.42;1.23;;;;;;;33.45;30.59;100550.56;5549177;32;33988;-68
2022/08/07 11:52:54;;;;;;;2.10;1.90;;;;;;;36.71;26.27;100543.00;5548989;32;34568;-69
2022/08/07 11:56:31;;;;;;;2.12;1.70;;;;;;;36.82;26.00;100541.47;5548234;32;32574;-68
2022/08/07 12:00:05;;;;;;;2.28;1.55;;;;;;;37.97;24.75;100542.28;5548768;32;34944;-67
2022/08/07 12:03:50;;;;;;;2.95;1.40;;;;;;;36.84;25.16;100533.66;5548895;32;33931;-67
2022/08/07 12:07:00;;;;;;;2.75;1.27;;;;;;;37.19;24.61;100526.62;5548414;32;32869;-69
2022/08/07 12:10:35;;;;;;;1.50;1.40;;;;;;;39.91;21.88;100539.53;5549867;32;34215;-68
2022/08/07 12:13:59;;;;;;;5.62;1.30;;;;;;;38.81;22.56;100526.66;5551028;32;33555;-68
2022/08/07 12:17:09;;;;;;;2.58;1.42;;;;;;;39.10;22.67;100524.34;5551555;32;33992;-68
2022/08/07 12:20:32;;;;;;;2.95;1.50;;;;;;;40.89;20.90;100521.78;5551759;32;33953;-69
2022/08/07 12:24:18;;;;;;;2.70;1.60;;;;;;;42.85;18.86;100518.91;5537600;32;32939;-68
2022/08/07 12:27:54;;;;;;;5.28;1.50;;;;;;;42.16;19.41;100523.19;5551140;32;33913;-69
2022/08/07 12:31:21;;;;;;;2.05;1.58;;;;;;;39.22;22.39;100511.53;5550268;32;32718;-67
2022/08/07 12:34:28;;;;;;;1.52;1.40;;;;;;;38.16;23.37;100500.97;5538035;32;32863;-68
2022/08/07 12:37:32;;;;;;;2.62;1.77;;;;;;;37.92;24.03;100492.66;5550632;32;33754;-69
2022/08/07 12:40:58;;;;;;;2.20;1.60;;;;;;;40.80;20.82;100492.25;5550567;32;32415;-68
2022/08/07 12:44:07;;;;;;;1.62;1.50;;;;;;;42.64;19.29;100494.34;5551045;32;34739;-68
2022/08/07 12:47:48;;;;;;;2.10;1.48;;;;;;;41.42;19.50;100494.94;5551680;32;34709;-69
2022/08/07 12:51:08;;;;;;;2.08;1.48;;;;;;;41.32;19.84;100495.56;5551287;32;33895;-66
2022/08/07 12:55:07;;;;;;;1.90;1.57;;;;;;;37.52;23.93;100487.78;5551272;32;34634;-67
2022/08/07 12:58:15;;;;;;;2.72;1.87;;;;;;;33.23;30.18;100481.84;5550416;32;34759;-67
2022/08/07 13:01:28;;;;;;;2.62;2.08;;;;;;;33.56;30.10;100472.09;5537525;32;32441;-67
2022/08/07 13:04:41;;;;;;;4.28;1.80;;;;;;;34.85;28.16;100483.31;5537894;32;34459;-67
2022/08/07 13:08:12;;;;;;;2.05;1.30;;;;;;;33.62;29.84;100476.34;5550563;32;33270;-67
2022/08/07 13:11:50;;;;;;;2.10;1.85;;;;;;;35.87;26.75;100477.78;5550978;32;34603;-68
2022/08/07 13:15:54;;;;;;;3.87;1.62;;;;;;;39.57;22.48;100464.44;5550413;32;32424;-68
2022/08/07 13:19:07;;;;;;;2.05;1.70;;;;;;;41.94;19.80;100474.69;5539744;32;34815;-68
2022/08/07 13:22:32;;;;;;;2.22;1.65;;;;;;;39.39;22.26;100467.63;5549086;32;32446;-69
2022/08/07 13:25:49;;;;;;;1.70;1.60;;;;;;;38.89;22.95;100457.16;5550241;32;33219;-68
2022/08/07 13:29:05;;;;;;;2.42;1.83;;;;;;;40.65;21.27;100464.50;5549922;32;32684;-69
2022/08/07 13:32:26;;;;;;;1.85;1.70;;;;;;;41.41;19.81;100462.69;5549815;32;34556;-69
2022/08/07 13:35:43;;;;;;;2.85;1.67;;;;;;;42.75;18.54;100469.41;5549938;32;33231;-67
2022/08/07 13:39:31;;;;;;;2.28;1.52;;;;;;;42.33;19.00;100462.09;5550125;32;33029;-68
2022/08/07 13:43:01;;;;;;;3.47;1.58;;;;;;;41.81;19.50;100459.38;5550569;32;34047;-67
2022/08/07 13:46:05;;;;;;;4.05;1.60;;;;;;;42.57;18.37;100458.00;5550683;32;34745;-69
2022/08/07 13:49:34;;;;;;;2.00;1.50;;;;;;;43.48;17.74;100453.72;5550538;32;33944;-68
2022/08/07 13:52:58;;;;;;;2.60;1.45;;;;;;;39.69;21.29;100442.12;5550461;32;34084;-69
2022/08/07 13:56:02;;;;;;;1.58;1.45;;;;;;;41.02;20.46;100440.53;5550832;32;35507;-69
2022/08/07 13:59:20;;;;;;;2.58;1.60;;;;;;;40.11;21.40;100433.97;5550562;32;33962;-69
2022/08/07 14:02:28;;;;;;;;;;;;;;;41.60;19.45;100426.41;5550841;32;33903;-69
2022/08/07 14:05:43;;;;;;;4.25;1.73;;;;;;;42.79;18.41;100415.22;5550518;32;34821;-69
2022/08/07 14:08:53;;;;;;;2.10;1.40;;;;;;;41.11;20.04;100420.84;5550243;32;34527;-69
2022/08/07 14:12:01;;;;;;;2.35;1.60;;;;;;;44.48;16.93;100425.94;5550376;32;34046;-68
2022/08/07 14:15:35;;;;;;;2.33;1.67;;;;;;;41.44;19.45;100420.19;5550425;32;33463;-69
2022/08/07 14:18:47;;;;;;;2.62;1.45;;;;;;;41.25;19.92;100412.72;5550369;32;33972;-69
2022/08/07 14:22:00;;;;;;;1.67;1.50;;;;;;;43.85;17.24;100414.44;5550188;32;34753;-69
2022/08/07 14:25:27;;;;;;;3.45;1.58;;;;;;;40.65;20.34;100406.91;5549565;32;34313;-69
2022/08/07 14:28:43;;;;;;;2.50;1.73;;;;;;;43.49;17.62;100414.22;5536295;32;32489;-70
2022/08/07 14:32:06;;;;;;;3.37;1.50;;;;;;;41.78;19.06;100402.38;5549581;32;34718;-69
2022/08/07 14:35:14;;;;;;;5.37;1.65;;;;;;;40.39;20.55;100403.97;5549175;32;33885;-69
2022/08/07 14:38:39;;;;;;;2.50;1.60;;;;;;;37.85;23.85;100394.38;5550144;32;34067;-69
2022/08/07 14:41:52;;;;;;;2.15;1.65;;;;;;;36.44;25.29;100392.38;5549374;32;34697;-67
2022/08/07 14:45:15;;;;;;;3.05;1.70;;;;;;;33.33;29.68;100386.13;5548702;32;33074;-67
2022/08/07 14:48:30;;;;;;;3.08;1.90;;;;;;;32.54;31.67;100390.69;5549693;32;34045;-68
2022/08/07 14:51:56;;;;;;;4.80;1.70;;;;;;;33.27;30.23;100381.06;5549892;32;34030;-65
2022/08/07 14:55:11;;;;;;;3.03;1.90;;;;;;;32.47;31.26;100371.09;5548458;32;33567;-67
2022/08/07 14:58:27;;;;;;;2.40;1.87;;;;;;;32.91;30.81;100376.56;5536671;32;33538;-68
2022/08/07 15:01:39;;;;;;;3.87;2.00;;;;;;;32.22;31.95;100372.53;5549731;32;33944;-67
2022/08/07 15:04:53;;;;;;;3.30;1.70;;;;;;;32.46;31.84;100364.78;5548257;32;34174;-66
2022/08/07 15:07:57;;;;;;;2.50;2.00;;;;;;;33.04;30.89;100361.09;5549120;32;33901;-67
2022/08/07 15:11:12;;;;;;;3.12;2.03;;;;;;;35.18;28.04;100370.50;5549402;32;33935;-66
2022/08/07 15:14:37;;;;;;;2.03;1.60;;;;;;;36.31;26.02;100371.38;5549435;32;34544;-67
2022/08/07 15:18:04;;;;;;;2.12;1.77;;;;;;;36.33;25.66;100364.34;5549280;32;34656;-66
2022/08/07 15:21:24;;;;;;;2.67;1.90;;;;;;;34.63;28.18;100352.00;5548950;32;34678;-68
2022/08/07 15:24:50;;;;;;;1.80;1.65;;;;;;;33.03;30.32;100353.97;5549537;32;34035;-67
2022/08/07 15:28:16;;;;;;;1.87;1.65;;;;;;;33.09;30.49;100348.00;5548144;32;33238;-66
2022/08/07 15:31:41;;;;;;;2.45;1.70;;;;;;;34.17;29.21;100349.97;5548020;32;33102;-67